Time;durP1;ratioP1;P1;durP2;ratioP2;P2;SDS_P1;SDS_P2;PMS_P1;PMS_P2;Temp;Humidity;BMP_temperature;BMP_pressure;BME280_temperature;BME280_humidity;BME280_pressure;Samples;Min_cycle;Max_cycle;Signal;HPM_P1;HPM_P2
2022/05/23 00:01:53;;;;;;;5.03;3.73;;;19.20;99.90;;;;;;4954658;28;20209;-46
2022/05/23 00:04:20;;;;;;;3.90;3.43;;;19.10;99.90;;;;;;4955455;29;20209;-47
2022/05/23 00:06:48;;;;;;;5.80;3.13;;;19.10;99.90;;;;;;4946440;28;20237;-46
2022/05/23 00:09:16;;;;;;;6.00;4.03;;;19.10;99.90;;;;;;4957316;28;20209;-46
2022/05/23 00:11:44;;;;;;;3.80;3.37;;;19.00;99.90;;;;;;4948841;28;20701;-46
2022/05/23 00:14:11;;;;;;;6.53;3.93;;;19.00;99.90;;;;;;4955065;29;20259;-46
2022/05/23 00:16:41;;;;;;;4.20;3.43;;;19.00;99.90;;;;;;4954735;29;20206;-46
2022/05/23 00:19:10;;;;;;;5.93;4.30;;;18.90;99.90;;;;;;4950939;28;20284;-46
2022/05/23 00:21:38;;;;;;;4.80;3.17;;;18.90;99.90;;;;;;4949356;29;20202;-46
2022/05/23 00:24:06;;;;;;;5.67;3.53;;;18.90;99.90;;;;;;4954708;29;20667;-46
2022/05/23 00:26:33;;;;;;;9.27;3.50;;;19.00;99.90;;;;;;4952944;29;20279;-46
2022/05/23 00:29:00;;;;;;;3.63;3.33;;;18.90;99.90;;;;;;4954005;28;20205;-46
2022/05/23 00:31:27;;;;;;;6.57;3.60;;;18.90;99.90;;;;;;4954527;29;20260;-46
2022/05/23 00:36:40;;;;;;;5.93;4.03;;;18.80;99.90;;;;;;4953834;28;20224;-46
2022/05/23 00:39:07;;;;;;;9.50;4.27;;;18.80;99.90;;;;;;4953259;29;20730;-46
2022/05/23 00:44:24;;;;;;;3.20;2.90;;;18.90;99.90;;;;;;4953767;28;20212;-46
2022/05/23 00:46:56;;;;;;;5.10;3.60;;;18.90;99.90;;;;;;4954332;29;20292;-47
2022/05/23 00:49:26;;;;;;;2.67;2.47;;;18.80;99.90;;;;;;4953749;29;20212;-46
2022/05/23 00:51:59;;;;;;;4.83;3.50;;;18.80;99.90;;;;;;4945381;28;20253;-47
2022/05/23 00:54:31;;;;;;;3.87;3.57;;;18.80;99.90;;;;;;4954252;29;20201;-46
2022/05/23 00:56:58;;;;;;;5.07;2.50;;;18.70;99.90;;;;;;4953238;28;20201;-46
2022/05/23 00:59:31;;;;;;;5.30;2.67;;;18.70;99.90;;;;;;4954195;29;20201;-46
2022/05/23 01:01:59;;;;;;;4.43;3.33;;;18.70;99.90;;;;;;4946810;29;20780;-46
2022/05/23 01:04:28;;;;;;;3.73;2.80;;;18.70;99.90;;;;;;4953676;29;20213;-46
2022/05/23 01:06:59;;;;;;;4.97;3.43;;;18.70;99.90;;;;;;4951931;28;20703;-47
2022/05/23 01:09:27;;;;;;;4.83;3.63;;;18.70;99.90;;;;;;4952063;29;20198;-46
2022/05/23 01:11:58;;;;;;;3.93;2.93;;;18.70;99.90;;;;;;4953582;29;20217;-47
2022/05/23 01:14:25;;;;;;;2.73;2.53;;;18.70;99.90;;;;;;4951947;29;20220;-46
2022/05/23 01:16:53;;;;;;;3.43;3.20;;;18.70;99.90;;;;;;4951348;28;20260;-46
2022/05/23 01:19:20;;;;;;;11.77;3.27;;;18.70;99.90;;;;;;4950040;29;20201;-46
2022/05/23 01:21:57;;;;;;;5.37;3.40;;;18.70;99.90;;;;;;4952486;29;20201;-46
2022/05/23 01:24:30;;;;;;;5.63;3.50;;;18.70;99.90;;;;;;4951985;29;20205;-46
2022/05/23 01:27:00;;;;;;;4.80;3.97;;;18.70;99.90;;;;;;4953526;29;20593;-46
2022/05/23 01:29:27;;;;;;;3.90;3.53;;;18.70;99.90;;;;;;4949774;29;20209;-46
2022/05/23 01:31:59;;;;;;;3.30;3.03;;;18.70;99.90;;;;;;4953049;28;20206;-46
2022/05/23 01:34:27;;;;;;;4.33;3.80;;;18.70;99.90;;;;;;4949802;29;20288;-46
2022/05/23 01:36:54;;;;;;;2.87;2.60;;;18.60;99.90;;;;;;4953470;29;20197;-46
2022/05/23 01:39:21;;;;;;;6.00;3.50;;;18.60;99.90;;;;;;4949637;29;20723;-46
2022/05/23 01:41:48;;;;;;;4.73;4.23;;;18.50;99.90;;;;;;4949484;29;20197;-46
2022/05/23 01:44:17;;;;;;;8.93;5.27;;;18.60;99.90;;;;;;4952630;29;20260;-46
2022/05/23 01:46:44;;;;;;;6.40;3.43;;;18.60;99.90;;;;;;4951737;29;20272;-46
2022/05/23 01:49:10;;;;;;;6.40;4.23;;;18.50;99.90;;;;;;4952795;29;20256;-46
2022/05/23 01:51:37;;;;;;;3.73;3.43;;;18.40;99.90;;;;;;4953162;28;20252;-46
2022/05/23 01:54:04;;;;;;;4.30;3.97;;;18.40;99.90;;;;;;4953018;29;20209;-46
2022/05/23 01:56:31;;;;;;;4.50;3.23;;;18.40;99.90;;;;;;4952084;29;20264;-46
2022/05/23 02:01:44;;;;;;;6.63;4.17;;;18.40;99.90;;;;;;4950374;29;20216;-46
2022/05/23 02:04:11;;;;;;;3.57;3.27;;;18.20;99.90;;;;;;4951034;29;20205;-46
2022/05/23 02:06:38;;;;;;;4.20;3.57;;;18.30;99.90;;;;;;4950485;29;20202;-47
2022/05/23 02:09:05;;;;;;;5.00;4.03;;;18.20;99.90;;;;;;4952895;29;20198;-46
2022/05/23 02:11:32;;;;;;;5.17;3.93;;;18.20;99.90;;;;;;4950290;29;20747;-46
2022/05/23 02:13:59;;;;;;;5.03;4.53;;;18.10;99.90;;;;;;4950964;29;20276;-46
2022/05/23 02:16:27;;;;;;;7.13;3.50;;;18.20;99.90;;;;;;4952415;28;20214;-46
2022/05/23 02:18:56;;;;;;;7.20;4.70;;;18.20;99.90;;;;;;4953488;29;20224;-46
2022/05/23 02:21:22;;;;;;;8.30;4.13;;;18.10;99.90;;;;;;4951750;29;20275;-46
2022/05/23 02:23:49;;;;;;;8.60;4.87;;;18.20;99.90;;;;;;4950326;28;20284;-46
2022/05/23 02:26:16;;;;;;;5.17;4.10;;;18.10;99.90;;;;;;4952246;29;20257;-46
2022/05/23 02:28:43;;;;;;;7.33;4.33;;;18.10;99.90;;;;;;4953804;28;20829;-46
2022/05/23 02:31:10;;;;;;;6.87;4.60;;;18.10;99.90;;;;;;4951284;28;20201;-46
2022/05/23 02:33:37;;;;;;;10.27;4.17;;;18.20;99.90;;;;;;4956655;29;20276;-46
2022/05/23 02:36:07;;;;;;;6.50;3.97;;;18.10;99.90;;;;;;4953616;29;20281;-46
2022/05/23 02:38:34;;;;;;;4.60;3.80;;;18.20;99.90;;;;;;4956530;29;20583;-46
2022/05/23 02:41:01;;;;;;;5.43;3.53;;;18.20;99.90;;;;;;4955189;29;20205;-45
2022/05/23 02:43:28;;;;;;;10.13;4.57;;;18.20;99.90;;;;;;4955329;28;20238;-46
2022/05/23 02:45:55;;;;;;;4.73;3.47;;;18.20;99.90;;;;;;4951265;29;20205;-46
2022/05/23 02:48:22;;;;;;;5.93;4.00;;;18.20;99.90;;;;;;4953753;28;20275;-46
2022/05/23 02:50:49;;;;;;;7.73;3.80;;;18.20;99.90;;;;;;4954918;28;20213;-45
2022/05/23 02:53:18;;;;;;;6.67;3.70;;;18.20;99.90;;;;;;4953151;29;20225;-46
2022/05/23 02:55:45;;;;;;;6.27;3.43;;;18.20;99.90;;;;;;4954272;29;20205;-46
2022/05/23 02:58:12;;;;;;;4.07;3.37;;;18.20;99.90;;;;;;4956297;29;20201;-46
2022/05/23 03:00:39;;;;;;;9.47;4.53;;;18.20;99.90;;;;;;4954286;29;20209;-46
2022/05/23 03:03:08;;;;;;;5.70;4.47;;;18.20;99.90;;;;;;4955180;29;20225;-46
2022/05/23 03:05:39;;;;;;;6.70;3.60;;;18.10;99.90;;;;;;4956886;29;20232;-46
2022/05/23 03:08:06;;;;;;;4.10;3.70;;;18.10;99.90;;;;;;4954764;29;20221;-47
2022/05/23 03:10:35;;;;;;;16.97;3.90;;;18.10;99.90;;;;;;4955342;29;20205;-46
2022/05/23 03:13:02;;;;;;;6.63;3.83;;;18.10;99.90;;;;;;4947862;28;20217;-46
2022/05/23 03:15:30;;;;;;;11.50;3.67;;;18.10;99.90;;;;;;4949105;29;20205;-46
2022/05/23 03:17:57;;;;;;;5.90;3.77;;;18.10;99.90;;;;;;4953678;28;20198;-46
2022/05/23 03:20:25;;;;;;;5.10;3.50;;;18.00;99.90;;;;;;4955596;29;20583;-46
2022/05/23 03:28:23;;;;;;;7.83;4.57;;;17.80;99.90;;;;;;4955102;29;20227;-46
2022/05/23 03:30:50;;;;;;;8.10;4.57;;;17.80;99.90;;;;;;4954764;29;20346;-46
2022/05/23 03:33:17;;;;;;;7.43;3.40;;;17.80;99.90;;;;;;4953633;28;20221;-46
2022/05/23 03:35:44;;;;;;;9.07;4.83;;;17.80;99.90;;;;;;4953278;29;20210;-46
2022/05/23 03:38:12;;;;;;;4.20;3.80;;;17.80;99.90;;;;;;4951367;29;20308;-46
2022/05/23 03:40:41;;;;;;;7.33;4.90;;;17.80;99.90;;;;;;4955557;28;20197;-46
2022/05/23 03:43:09;;;;;;;7.80;4.77;;;17.80;99.90;;;;;;4954218;29;20283;-46
2022/05/23 03:45:37;;;;;;;7.57;4.07;;;17.80;99.90;;;;;;4954858;29;20591;-46
2022/05/23 03:48:06;;;;;;;9.43;5.50;;;17.80;99.90;;;;;;4950365;28;20233;-46
2022/05/23 03:50:34;;;;;;;8.67;4.40;;;17.80;99.90;;;;;;4954968;29;20236;-46
2022/05/23 03:53:02;;;;;;;3.33;2.97;;;17.80;99.90;;;;;;4950191;29;20268;-46
2022/05/23 03:55:30;;;;;;;5.63;4.23;;;17.80;99.90;;;;;;4955901;28;20566;-46
2022/05/23 03:57:58;;;;;;;4.63;4.03;;;17.80;99.90;;;;;;4955431;29;20201;-46
2022/05/23 04:00:25;;;;;;;3.37;3.17;;;17.80;99.90;;;;;;4951961;29;20201;-46
2022/05/23 04:02:52;;;;;;;4.20;3.53;;;17.70;99.90;;;;;;4986157;23;20232;-50
2022/05/23 04:05:19;;;;;;;5.77;4.40;;;17.70;99.90;;;;;;4992298;28;20196;-50
2022/05/23 04:07:47;;;;;;;6.77;5.17;;;17.80;99.90;;;;;;4993069;28;20220;-50
2022/05/23 04:10:17;;;;;;;5.87;3.70;;;17.80;99.90;;;;;;4993882;28;20611;-50
2022/05/23 04:12:44;;;;;;;7.83;3.83;;;17.80;99.90;;;;;;4990829;28;20232;-50
2022/05/23 04:15:14;;;;;;;6.43;3.27;;;17.90;99.90;;;;;;4992630;28;20206;-50
2022/05/23 04:17:41;;;;;;;7.53;4.10;;;17.90;99.90;;;;;;4990904;28;20203;-51
2022/05/23 04:20:10;;;;;;;8.87;3.93;;;18.00;99.90;;;;;;4991088;28;20200;-50
2022/05/23 04:22:37;;;;;;;7.43;4.40;;;18.00;99.90;;;;;;4994966;28;20220;-50
2022/05/23 04:25:06;;;;;;;5.73;3.87;;;18.20;99.90;;;;;;4990993;28;20347;-50
2022/05/23 04:27:33;;;;;;;8.33;3.80;;;18.30;99.90;;;;;;4993268;28;20270;-50
2022/05/23 04:30:00;;;;;;;5.67;3.63;;;18.40;99.90;;;;;;4992253;28;20200;-50
2022/05/23 04:35:16;;;;;;;6.50;3.83;;;18.40;99.90;;;;;;4993270;28;20210;-50
2022/05/23 04:37:45;;;;;;;4.83;4.33;;;18.40;99.90;;;;;;4992504;28;20578;-50
2022/05/23 04:40:14;;;;;;;4.57;3.53;;;18.40;99.90;;;;;;4992382;28;20231;-50
2022/05/23 04:42:42;;;;;;;4.37;3.97;;;18.40;99.90;;;;;;4987690;28;20270;-50
2022/05/23 04:45:10;;;;;;;7.33;4.43;;;18.40;99.90;;;;;;4988074;28;20555;-50
2022/05/23 04:50:23;;;;;;;10.13;4.63;;;18.60;99.90;;;;;;4992067;28;20804;-50
2022/05/23 04:52:51;;;;;;;9.73;4.07;;;18.40;99.90;;;;;;4992836;28;20270;-50
2022/05/23 04:55:18;;;;;;;6.10;4.93;;;18.30;99.90;;;;;;4993710;28;20666;-52
2022/05/23 04:57:45;;;;;;;8.87;4.47;;;18.30;99.90;;;;;;4992868;28;20204;-50
2022/05/23 05:00:18;;;;;;;7.67;5.40;;;18.20;99.90;;;;;;4994955;28;20255;-50
2022/05/23 05:02:48;;;;;;;9.17;5.57;;;18.10;99.90;;;;;;4992385;28;20235;-50
2022/05/23 05:05:15;;;;;;;6.07;5.63;;;18.10;99.90;;;;;;4992705;28;20586;-50
2022/05/23 05:07:42;;;;;;;6.00;5.43;;;18.10;99.90;;;;;;4991608;28;20216;-50
2022/05/23 05:10:10;;;;;;;5.63;5.07;;;18.10;99.90;;;;;;4991276;28;20258;-49
2022/05/23 05:12:38;;;;;;;8.03;4.93;;;18.00;99.90;;;;;;4987403;28;20228;-50
2022/05/23 05:15:05;;;;;;;5.67;5.17;;;18.00;99.90;;;;;;4994859;28;20228;-50
2022/05/23 05:17:32;;;;;;;5.10;4.70;;;18.20;99.90;;;;;;4989835;28;20204;-50
2022/05/23 05:20:01;;;;;;;5.97;5.37;;;18.20;99.90;;;;;;4984381;28;20224;-49
2022/05/23 05:22:28;;;;;;;5.60;4.97;;;18.30;99.90;;;;;;4990027;28;20310;-50
2022/05/23 05:24:55;;;;;;;6.47;5.88;;;18.30;99.90;;;;;;4985583;28;20474;-50
2022/05/23 05:27:22;;;;;;;5.20;4.90;;;18.30;99.90;;;;;;4991162;28;20207;-50
2022/05/23 05:29:49;;;;;;;4.37;3.90;;;18.20;99.90;;;;;;4994391;28;20307;-50
2022/05/23 05:32:21;;;;;;;4.27;4.07;;;18.20;99.90;;;;;;4990984;28;20710;-50
2022/05/23 05:34:53;;;;;;;5.60;4.37;;;18.30;99.90;;;;;;4994678;28;20208;-50
2022/05/23 05:37:28;;;;;;;4.47;4.10;;;18.30;99.90;;;;;;4991603;28;20262;-50
2022/05/23 05:39:58;;;;;;;4.93;4.43;;;18.20;99.90;;;;;;4992436;28;20191;-49
2022/05/23 05:42:30;;;;;;;5.10;4.70;;;18.30;99.90;;;;;;4986525;28;20274;-50
2022/05/23 05:45:02;;;;;;;6.03;4.23;;;18.30;99.90;;;;;;4989910;28;20681;-50
2022/05/23 05:47:31;;;;;;;5.50;4.90;;;18.40;99.90;;;;;;4991378;28;20254;-50
2022/05/23 05:50:05;;;;;;;5.83;5.27;;;18.40;99.90;;;;;;4991119;28;20259;-50
2022/05/23 05:52:35;;;;;;;4.97;4.67;;;18.40;99.90;;;;;;4990573;28;20310;-50
2022/05/23 05:55:04;;;;;;;7.47;4.83;;;18.40;99.90;;;;;;4990275;28;20267;-50
2022/05/23 05:57:31;;;;;;;4.57;4.37;;;18.50;99.90;;;;;;4993513;28;20276;-50
2022/05/23 05:59:58;;;;;;;4.00;3.70;;;18.50;99.90;;;;;;4991725;28;20208;-50
2022/05/23 06:02:26;;;;;;;5.93;4.50;;;18.60;99.90;;;;;;4990298;28;20286;-50
2022/05/23 06:04:53;;;;;;;6.50;4.93;;;18.70;99.90;;;;;;4990349;28;20270;-50
2022/05/23 06:12:53;;;;;;;5.60;5.07;;;18.90;99.90;;;;;;4990457;28;20305;-50
2022/05/23 06:15:20;;;;;;;4.03;3.90;;;19.10;99.90;;;;;;4991547;28;20200;-50
2022/05/23 06:17:47;;;;;;;4.83;4.37;;;19.00;99.90;;;;;;4990443;28;20203;-50
2022/05/23 06:20:16;;;;;;;5.10;4.10;;;19.10;99.90;;;;;;4986429;28;20658;-50
2022/05/23 06:22:43;;;;;;;4.57;4.23;;;19.30;99.90;;;;;;4988951;28;20219;-50
2022/05/23 06:25:13;;;;;;;4.20;3.90;;;19.60;99.90;;;;;;4989013;28;20464;-50
2022/05/23 06:27:41;;;;;;;5.10;4.37;;;20.40;99.90;;;;;;4989576;28;20210;-49
2022/05/23 06:30:09;;;;;;;5.90;5.40;;;20.80;99.90;;;;;;4988641;28;20223;-50
2022/05/23 06:32:37;;;;;;;4.00;3.80;;;21.00;99.90;;;;;;4986710;28;20223;-51
2022/05/23 06:35:07;;;;;;;4.27;4.07;;;21.20;99.90;;;;;;4988916;28;20211;-51
2022/05/23 06:37:35;;;;;;;5.13;4.63;;;21.40;99.90;;;;;;4990026;28;20713;-51
2022/05/23 06:40:03;;;;;;;6.00;4.63;;;21.20;99.90;;;;;;4990567;28;20662;-51
2022/05/23 06:42:32;;;;;;;7.50;4.93;;;21.00;99.90;;;;;;4989759;28;20314;-51
2022/05/23 06:44:59;;;;;;;4.50;4.13;;;21.10;99.90;;;;;;4991052;28;20690;-51
2022/05/23 06:47:27;;;;;;;4.50;4.13;;;21.60;99.90;;;;;;4990827;28;20212;-51
2022/05/23 06:49:54;;;;;;;4.53;4.33;;;22.30;99.90;;;;;;4990873;28;20270;-51
2022/05/23 06:52:21;;;;;;;6.23;5.27;;;23.20;99.90;;;;;;4989830;28;20250;-53
2022/05/23 06:54:48;;;;;;;5.37;5.07;;;23.10;99.90;;;;;;4991161;28;20247;-53
2022/05/23 06:57:16;;;;;;;5.13;4.77;;;23.30;99.90;;;;;;4990818;28;20258;-53
2022/05/23 06:59:45;;;;;;;6.07;5.50;;;23.90;99.90;;;;;;4991144;28;20594;-53
2022/05/23 07:02:12;;;;;;;6.43;5.60;;;24.50;99.90;;;;;;4989638;28;20258;-53
2022/05/23 07:12:54;;;;;;;5.00;4.60;;;26.50;99.90;;;;;;4989025;28;20613;-53
2022/05/23 07:15:22;;;;;;;5.53;4.40;;;26.70;99.90;;;;;;4990658;28;20200;-53
2022/05/23 07:17:49;;;;;;;4.88;4.32;;;27.00;99.90;;;;;;4993472;28;20270;-53
2022/05/23 07:20:16;;;;;;;4.72;4.32;;;27.00;99.90;;;;;;4992057;28;20210;-53
2022/05/23 07:22:43;;;;;;;4.55;3.53;;;26.80;99.90;;;;;;4984896;28;20271;-54
2022/05/23 07:25:13;;;;;;;7.43;4.03;;;26.80;99.90;;;;;;4992551;28;20247;-54
2022/05/23 07:27:40;;;;;;;3.88;3.42;;;26.90;99.90;;;;;;4994609;28;20738;-54
2022/05/23 07:30:09;;;;;;;5.00;3.80;;;26.80;99.90;;;;;;4992246;28;20228;-54
2022/05/23 07:32:37;;;;;;;6.88;4.95;;;26.70;99.90;;;;;;4993418;28;20236;-54
2022/05/23 07:35:05;;;;;;;6.10;3.78;;;26.60;99.90;;;;;;5004078;28;20199;-53
2022/05/23 07:37:32;;;;;;;6.85;4.13;;;26.70;99.90;;;;;;5004271;28;20216;-54
2022/05/23 07:39:59;;;;;;;6.97;4.47;;;27.00;99.90;;;;;;4997472;28;20201;-54
2022/05/23 07:42:26;;;;;;;10.60;5.20;;;27.10;99.90;;;;;;4993943;28;20223;-53
2022/05/23 07:44:53;;;;;;;10.50;4.25;;;27.80;99.90;;;;;;4993177;28;20234;-54
2022/05/23 07:47:20;;;;;;;9.48;7.32;;;28.40;99.90;;;;;;4994369;28;20232;-54
2022/05/23 07:49:50;;;;;;;7.22;4.32;;;28.40;99.90;;;;;;4992976;28;20219;-54
2022/05/23 07:52:17;;;;;;;8.43;3.97;;;28.70;99.90;;;;;;4992726;28;20200;-54
2022/05/23 08:00:32;;;;;;;7.57;4.57;;;28.20;99.90;;;;;;4992515;28;20579;-53
2022/05/23 08:03:01;;;;;;;8.00;4.07;;;28.40;99.90;;;;;;4990141;28;20257;-54
2022/05/23 08:05:29;;;;;;;11.13;4.22;;;29.00;99.90;;;;;;4993275;28;20272;-54
2022/05/23 08:07:57;;;;;;;9.13;4.25;;;29.20;99.90;;;;;;4994050;28;20231;-54
2022/05/23 08:10:24;;;;;;;4.85;3.95;;;29.60;99.90;;;;;;4991944;28;20228;-54
2022/05/23 08:12:55;;;;;;;14.57;4.05;;;29.90;99.90;;;;;;4992182;28;20224;-54
2022/05/23 08:15:22;;;;;;;8.68;4.00;;;29.90;99.90;;;;;;4989763;28;20203;-54
2022/05/23 08:17:50;;;;;;;8.88;4.82;;;30.10;99.90;;;;;;4992383;28;20294;-54
2022/05/23 08:20:17;;;;;;;13.23;5.00;;;30.30;99.90;;;;;;4991248;28;20564;-53
2022/05/23 08:22:51;;;;;;;7.05;4.38;;;30.00;99.90;;;;;;4991575;28;20290;-54
2022/05/23 08:25:19;;;;;;;7.28;4.75;;;30.00;99.90;;;;;;4992585;28;20288;-54
2022/05/23 08:27:46;;;;;;;10.80;4.80;;;29.90;99.90;;;;;;4993403;28;20214;-53
2022/05/23 08:30:14;;;;;;;6.28;4.75;;;29.90;99.90;;;;;;4992968;28;20211;-54
2022/05/23 08:32:41;;;;;;;6.85;4.05;;;29.80;99.90;;;;;;4993209;28;20228;-54
2022/05/23 08:35:09;;;;;;;12.68;4.85;;;30.40;99.90;;;;;;4993719;28;20196;-54
2022/05/23 08:37:37;;;;;;;7.63;4.57;;;30.60;99.90;;;;;;4992096;28;20669;-54
2022/05/23 08:40:07;;;;;;;9.60;3.60;;;30.60;99.90;;;;;;4992221;28;20548;-54
2022/05/23 08:42:47;;;;;;;9.68;4.35;;;30.80;99.90;;;;;;4988062;28;20720;-54
2022/05/23 08:45:15;;;;;;;6.35;4.88;;;30.80;99.90;;;;;;4993111;28;20266;-54
2022/05/23 08:47:49;;;;;;;7.72;4.90;;;30.60;99.90;;;;;;4993236;28;20204;-54
2022/05/23 08:50:21;;;;;;;5.95;3.88;;;30.60;99.90;;;;;;4991931;28;20792;-53
2022/05/23 08:52:53;;;;;;;12.88;4.10;;;30.70;99.90;;;;;;4990200;28;20310;-53
2022/05/23 08:55:27;;;;;;;8.18;3.75;;;31.10;99.90;;;;;;4993239;28;20236;-54
2022/05/23 08:58:01;;;;;;;7.75;4.38;;;31.60;99.90;;;;;;4993231;28;20589;-54
2022/05/23 09:00:32;;;;;;;9.93;4.18;;;31.90;99.90;;;;;;4992590;28;20216;-54
2022/05/23 09:03:06;;;;;;;8.18;4.03;;;32.20;99.90;;;;;;4990204;28;20227;-54
2022/05/23 09:05:36;;;;;;;10.02;3.47;;;32.40;99.90;;;;;;4993001;28;20204;-54
2022/05/23 09:08:06;;;;;;;9.38;3.90;;;31.80;99.90;;;;;;4991874;28;20196;-54
2022/05/23 09:10:41;;;;;;;7.50;4.35;;;31.60;99.90;;;;;;4991518;28;20224;-54
2022/05/23 09:13:17;;;;;;;5.35;3.53;;;31.40;99.90;;;;;;4992366;28;20220;-54
2022/05/23 09:15:48;;;;;;;14.25;5.82;;;31.80;99.90;;;;;;4990915;28;20294;-54
2022/05/23 09:18:21;;;;;;;7.78;4.38;;;31.70;99.90;;;;;;4992824;28;20250;-54
2022/05/23 09:20:51;;;;;;;6.10;3.97;;;31.20;99.90;;;;;;4990966;28;20250;-54
2022/05/23 09:23:25;;;;;;;8.30;4.55;;;31.30;99.90;;;;;;4985596;28;20290;-54
2022/05/23 09:25:55;;;;;;;7.00;3.85;;;31.80;99.90;;;;;;4988168;28;20252;-54
2022/05/23 09:28:29;;;;;;;6.95;4.53;;;31.80;99.90;;;;;;4991407;28;20674;-54
2022/05/23 09:30:59;;;;;;;12.32;4.25;;;32.00;99.90;;;;;;4990444;28;20262;-54
2022/05/23 09:33:29;;;;;;;5.97;4.75;;;32.40;99.90;;;;;;4991939;28;20216;-54
2022/05/23 09:36:09;;;;;;;10.38;4.28;;;33.00;99.90;;;;;;4992315;28;20658;-54
2022/05/23 09:38:47;;;;;;;7.20;3.88;;;33.20;99.90;;;;;;4992004;28;20207;-54
2022/05/23 09:50:09;;;;;;;9.45;4.70;;;33.00;99.40;;;;;;4987945;28;20231;-54
2022/05/23 09:52:42;;;;;;;5.07;3.65;;;33.40;99.90;;;;;;4989372;28;20282;-54
2022/05/23 09:55:12;;;;;;;13.77;4.78;;;33.50;99.90;;;;;;4989139;28;20200;-54
2022/05/23 09:57:42;;;;;;;7.05;4.20;;;33.60;98.80;;;;;;4989095;28;20204;-54
2022/05/23 10:00:27;;;;;;;9.77;4.90;;;33.20;97.50;;;;;;4988327;28;20522;-53
2022/05/23 10:03:01;;;;;;;8.30;4.90;;;32.60;99.20;;;;;;5007323;23;20269;-49
2022/05/23 10:05:31;;;;;;;9.27;4.43;;;32.70;99.70;;;;;;4970266;28;20200;-49
2022/05/23 10:08:00;;;;;;;10.40;5.40;;;33.00;99.90;;;;;;4970113;28;20236;-49
2022/05/23 10:10:30;;;;;;;6.57;5.07;;;32.60;99.90;;;;;;4971775;28;20257;-47
2022/05/23 10:15:53;;;;;;;6.78;4.80;;;32.40;99.90;;;;;;5089066;28;20595;-48
2022/05/23 10:18:25;;;;;;;7.97;5.25;;;31.10;99.90;;;;;;5093129;28;20544;-48
2022/05/23 10:20:53;;;;;;;6.43;5.75;;;30.70;99.90;;;;;;5087040;28;20246;-48
2022/05/23 10:23:23;;;;;;;6.63;5.63;;;30.30;99.90;;;;;;5080442;28;20217;-48
2022/05/23 10:25:59;;;;;;;6.15;5.53;;;30.00;99.90;;;;;;5068732;28;20310;-48
2022/05/23 10:28:37;;;;;;;6.53;5.93;;;30.00;99.90;;;;;;5068585;28;20208;-48
2022/05/23 10:31:08;;;;;;;7.50;6.47;;;30.00;99.90;;;;;;5068050;28;20616;-48
2022/05/23 10:33:37;;;;;;;8.68;7.78;;;29.40;99.90;;;;;;5067621;28;20651;-48
2022/05/23 10:36:10;;;;;;;10.20;9.32;;;29.30;99.90;;;;;;5068281;28;20690;-48
2022/05/23 10:44:28;;;;;;;8.73;7.97;;;26.90;99.90;;;;;;5067994;28;20243;-47
2022/05/23 10:47:14;;;;;;;9.63;8.73;;;26.90;99.90;;;;;;5068384;28;20208;-47
2022/05/23 10:49:47;;;;;;;9.03;8.17;;;26.80;99.90;;;;;;5068309;28;20205;-47
2022/05/23 10:52:22;;;;;;;11.90;8.03;;;26.60;99.90;;;;;;5066290;28;20252;-47
2022/05/23 10:55:00;;;;;;;9.55;7.20;;;26.60;99.90;;;;;;5068005;28;20205;-47
2022/05/23 10:57:47;;;;;;;10.23;9.23;;;26.70;99.90;;;;;;5068306;28;20267;-47
2022/05/23 11:00:16;;;;;;;8.87;7.60;;;26.40;99.90;;;;;;5067097;28;20715;-47
2022/05/23 11:02:54;;;;;;;10.00;7.90;;;26.00;99.90;;;;;;5067042;28;20255;-47
2022/05/23 11:05:27;;;;;;;7.63;6.93;;;25.80;99.90;;;;;;5048221;28;20253;-47
2022/05/23 11:08:14;;;;;;;10.07;7.07;;;26.40;99.90;;;;;;5047955;28;20208;-47
2022/05/23 11:10:49;;;;;;;6.93;6.33;;;27.10;99.90;;;;;;5052848;28;20227;-47
2022/05/23 11:13:29;;;;;;;12.07;7.40;;;27.70;99.90;;;;;;5067099;28;20215;-47
2022/05/23 11:16:12;;;;;;;13.13;6.40;;;27.40;99.90;;;;;;5067587;28;20247;-48
2022/05/23 11:18:55;;;;;;;11.23;5.28;;;27.20;99.90;;;;;;5067731;28;20264;-47
2022/05/23 11:21:29;;;;;;;11.43;6.05;;;27.40;99.90;;;;;;5065915;28;20693;-47
2022/05/23 11:24:03;;;;;;;8.40;6.25;;;27.40;99.90;;;;;;5066706;28;20219;-47
2022/05/23 11:26:34;;;;;;;6.45;5.82;;;26.90;99.90;;;;;;5059194;28;20217;-47
2022/05/23 11:34:43;;;;;;;5.90;5.37;;;25.30;99.90;;;;;;5053909;28;20707;-47
2022/05/23 11:39:57;;;;;;;11.90;6.50;;;25.00;99.90;;;;;;5073730;28;20200;-46
2022/05/23 11:42:30;;;;;;;8.43;7.23;;;24.60;99.90;;;;;;5053463;28;20195;-47
2022/05/23 11:47:56;;;;;;;8.53;6.67;;;24.20;99.90;;;;;;5053526;28;20194;-47
2022/05/23 11:50:28;;;;;;;12.07;7.30;;;23.90;99.90;;;;;;5044306;28;20201;-46
2022/05/23 11:53:09;;;;;;;13.17;8.37;;;23.50;99.90;;;;;;5052978;28;20328;-47
2022/05/23 11:56:07;;;;;;;10.37;9.27;;;23.20;99.90;;;;;;5053630;28;20293;-47
2022/05/23 11:58:46;;;;;;;7.83;7.13;;;23.00;99.90;;;;;;5053009;28;20230;-46
2022/05/23 12:01:26;;;;;;;12.47;8.47;;;22.90;99.90;;;;;;5045402;28;20667;-47
2022/05/23 12:04:21;;;;;;;17.33;7.90;;;22.70;99.90;;;;;;5052975;28;20663;-47
2022/05/23 12:06:50;;;;;;;8.37;7.53;;;22.40;99.90;;;;;;5053535;28;20317;-47
2022/05/23 12:09:36;;;;;;;8.40;7.17;;;22.30;99.90;;;;;;5048269;28;20205;-47
2022/05/23 12:12:35;;;;;;;12.00;7.77;;;22.20;99.90;;;;;;5052203;28;20584;-47
2022/05/23 12:15:03;;;;;;;8.97;7.80;;;22.20;99.90;;;;;;5053402;28;20498;-47
2022/05/23 12:17:33;;;;;;;9.07;7.07;;;22.20;99.90;;;;;;5053386;28;20201;-47
2022/05/23 12:20:02;;;;;;;7.33;6.60;;;22.20;99.90;;;;;;5050267;28;20202;-47
2022/05/23 12:22:34;;;;;;;9.20;7.00;;;22.20;99.90;;;;;;5047360;28;20198;-47
2022/05/23 12:25:26;;;;;;;10.27;8.10;;;22.10;99.90;;;;;;5050357;28;20222;-47
2022/05/23 12:28:20;;;;;;;12.93;8.80;;;22.10;99.90;;;;;;5050357;28;20209;-46
2022/05/23 12:31:09;;;;;;;8.87;8.00;;;22.00;99.90;;;;;;5052897;28;20202;-47
2022/05/23 12:33:42;;;;;;;11.60;9.63;;;21.90;99.90;;;;;;5053049;28;20279;-47
2022/05/23 12:36:15;;;;;;;11.40;9.10;;;21.80;99.90;;;;;;5049018;28;20191;-47
2022/05/23 12:39:05;;;;;;;19.67;10.20;;;21.70;99.90;;;;;;5048200;28;20205;-47
2022/05/23 13:05:13;;;;;;;19.23;12.33;;;21.00;99.90;;;;;;5041140;28;20267;-47
2022/05/23 13:07:50;;;;;;;14.93;11.00;;;21.00;99.90;;;;;;5052501;28;20237;-47
2022/05/23 13:10:23;;;;;;;20.60;13.10;;;21.10;99.90;;;;;;5052143;28;20194;-46
2022/05/23 13:12:58;;;;;;;17.10;12.47;;;21.20;99.90;;;;;;5051883;28;20230;-46
2022/05/23 13:15:28;;;;;;;15.57;10.63;;;21.00;99.90;;;;;;5052072;28;20205;-46
2022/05/23 13:22:05;;;;;;;13.63;11.63;;;21.10;99.90;;;;;;5051743;28;20715;-46
2022/05/23 13:23:32;;;;;;;11.73;9.40;;;21.90;99.90;;;;;;5050295;28;20228;-46
2022/05/23 13:26:07;;;;;;;8.30;7.50;;;22.30;99.90;;;;;;5051975;28;20594;-47
2022/05/23 13:28:41;;;;;;;13.73;10.30;;;22.70;99.90;;;;;;5050353;28;20225;-46
2022/05/23 13:31:24;;;;;;;13.47;9.43;;;23.10;99.90;;;;;;5050012;28;20193;-47
2022/05/23 13:33:52;;;;;;;10.40;9.03;;;23.20;99.90;;;;;;5036455;28;20308;-47
2022/05/23 13:36:21;;;;;;;11.43;10.33;;;23.50;99.90;;;;;;5051336;28;20567;-47
2022/05/23 13:39:04;;;;;;;13.97;9.90;;;23.70;99.90;;;;;;5045810;28;20280;-46
2022/05/23 13:41:33;;;;;;;9.43;8.60;;;23.90;99.90;;;;;;5045550;28;20240;-47
2022/05/23 13:44:00;;;;;;;9.50;8.60;;;24.00;99.90;;;;;;5050681;28;20214;-47
2022/05/23 13:49:53;;;;;;;11.10;10.13;;;23.90;99.90;;;;;;5047511;28;20254;-46
2022/05/23 13:52:28;;;;;;;9.30;8.57;;;23.70;99.90;;;;;;5046801;28;20198;-47
2022/05/23 13:55:01;;;;;;;10.17;9.17;;;23.60;99.90;;;;;;5049731;28;20206;-47
2022/05/23 13:57:33;;;;;;;9.10;8.13;;;23.50;99.90;;;;;;5045876;28;20248;-46
2022/05/23 14:00:09;;;;;;;8.30;7.50;;;23.60;99.90;;;;;;5050336;28;20260;-47
2022/05/23 14:02:41;;;;;;;9.20;7.13;;;23.60;99.90;;;;;;5050361;28;20231;-47
2022/05/23 14:05:10;;;;;;;7.10;6.50;;;23.70;99.90;;;;;;5044609;28;20231;-47
2022/05/23 14:07:41;;;;;;;6.53;5.93;;;23.70;99.90;;;;;;5033291;28;20241;-47
2022/05/23 14:10:10;;;;;;;8.93;7.13;;;23.70;99.90;;;;;;5051350;28;20194;-47
2022/05/23 14:12:39;;;;;;;7.63;6.40;;;23.70;99.90;;;;;;5047991;28;20205;-47
2022/05/23 14:15:10;;;;;;;5.93;5.27;;;23.70;99.90;;;;;;5046601;28;20204;-47
2022/05/23 14:17:40;;;;;;;13.47;7.07;;;23.70;99.90;;;;;;5049719;28;20694;-46
2022/05/23 14:20:22;;;;;;;6.70;5.90;;;23.70;99.90;;;;;;5051006;28;20194;-47
2022/05/23 14:23:06;;;;;;;6.43;5.40;;;23.70;99.90;;;;;;5041984;28;20225;-47
2022/05/23 14:25:37;;;;;;;11.17;7.27;;;23.70;99.90;;;;;;5045592;28;20768;-47
2022/05/23 14:28:20;;;;;;;6.20;5.73;;;23.70;99.90;;;;;;5051257;28;20216;-47
2022/05/23 14:30:49;;;;;;;6.47;5.73;;;23.60;99.90;;;;;;5051468;28;20205;-47
2022/05/23 14:33:22;;;;;;;6.27;5.67;;;23.40;99.90;;;;;;5041853;28;20218;-47
2022/05/23 14:35:56;;;;;;;6.57;5.70;;;23.30;99.90;;;;;;5050930;28;20198;-46
2022/05/23 14:38:28;;;;;;;9.20;6.00;;;23.00;99.90;;;;;;5049988;28;20198;-47
2022/05/23 14:40:56;;;;;;;10.33;6.27;;;22.80;99.90;;;;;;5049669;28;20647;-47